Time;durP1;ratioP1;P1;durP2;ratioP2;P2;SDS_P1;SDS_P2;PMS_P1;PMS_P2;Temp;Humidity;BMP_temperature;BMP_pressure;BME280_temperature;BME280_humidity;BME280_pressure;Samples;Min_cycle;Max_cycle;Signal;HPM_P1;HPM_P2
2023/03/20 00:00:25;;;;;;;9.35;2.92;;;;;;;6.74;100.00;96030.22;5073123;28;20431;-74
2023/03/20 00:02:52;;;;;;;3.55;2.50;;;;;;;6.86;100.00;96033.16;5072699;28;20422;-74
2023/03/20 00:05:21;;;;;;;3.38;2.40;;;;;;;6.76;100.00;96031.00;5072906;28;20087;-74
2023/03/20 00:07:48;;;;;;;3.08;2.22;;;;;;;6.86;100.00;96040.88;5071617;28;20072;-75
2023/03/20 00:10:15;;;;;;;2.55;2.20;;;;;;;6.62;100.00;96041.06;5073078;28;20052;-75
2023/03/20 00:12:45;;;;;;;3.58;1.98;;;;;;;6.44;100.00;96041.84;5072757;28;20044;-75
2023/03/20 00:15:24;;;;;;;3.03;2.05;;;;;;;6.30;100.00;96039.84;5072873;28;20041;-74
2023/03/20 00:17:51;;;;;;;2.22;1.85;;;;;;;6.15;100.00;96050.75;5072637;28;20049;-73
2023/03/20 00:20:18;;;;;;;2.10;1.55;;;;;;;6.24;100.00;96035.78;5072513;28;20048;-74
2023/03/20 00:22:44;;;;;;;2.00;1.80;;;;;;;6.27;100.00;96039.97;5070726;28;20045;-74
2023/03/20 00:25:14;;;;;;;2.13;1.52;;;;;;;6.18;100.00;96056.63;5078431;28;20048;-73
2023/03/20 00:27:41;;;;;;;2.00;1.45;;;;;;;6.15;100.00;96050.75;5073046;28;20513;-74
2023/03/20 00:30:18;;;;;;;2.45;1.73;;;;;;;6.31;100.00;96046.66;5067925;28;20052;-74
2023/03/20 00:32:46;;;;;;;2.08;1.58;;;;;;;6.29;100.00;96057.00;5070497;28;20503;-73
2023/03/20 00:35:18;;;;;;;2.13;1.70;;;;;;;6.23;100.00;96046.13;5068115;28;20067;-74
2023/03/20 00:37:45;;;;;;;2.50;2.13;;;;;;;6.22;100.00;96059.91;5073096;28;20044;-74
2023/03/20 00:40:12;;;;;;;2.60;1.83;;;;;;;6.25;100.00;96049.50;5072326;28;20048;-74
2023/03/20 00:42:39;;;;;;;3.75;1.88;;;;;;;6.20;100.00;96064.28;5072113;28;20052;-74
2023/03/20 00:45:12;;;;;;;2.70;1.58;;;;;;;6.22;100.00;96044.47;5072233;28;20049;-73
2023/03/20 00:47:40;;;;;;;1.50;1.20;;;;;;;6.13;100.00;96040.53;5076134;28;20056;-74
2023/03/20 00:50:14;;;;;;;1.95;1.30;;;;;;;6.11;100.00;96042.31;5073718;28;20041;-73
2023/03/20 00:52:41;;;;;;;3.20;1.40;;;;;;;6.10;100.00;96044.97;5071812;28;20083;-74
2023/03/20 00:55:08;;;;;;;3.35;1.27;;;;;;;6.22;100.00;96036.75;5071985;28;20052;-74
2023/03/20 00:57:40;;;;;;;1.92;1.15;;;;;;;6.21;100.00;96032.50;5070427;28;20059;-74
2023/03/20 01:00:08;;;;;;;0.85;0.82;;;;;;;6.24;100.00;96037.53;5071776;28;20059;-74
2023/03/20 01:02:35;;;;;;;1.77;1.23;;;;;;;6.30;100.00;96045.84;5071642;28;20510;-74
2023/03/20 01:05:04;;;;;;;1.80;1.00;;;;;;;6.25;100.00;96039.19;5068379;28;20438;-74
2023/03/20 01:07:31;;;;;;;1.13;1.00;;;;;;;6.22;100.00;96034.19;5071544;28;20052;-74
2023/03/20 01:09:57;;;;;;;1.67;1.23;;;;;;;6.10;100.00;96040.66;5071424;28;20048;-74
2023/03/20 01:12:24;;;;;;;1.00;0.90;;;;;;;6.03;100.00;96044.38;5071821;28;20056;-74
2023/03/20 01:14:53;;;;;;;0.98;0.70;;;;;;;6.03;100.00;96044.38;5067160;28;20053;-74
2023/03/20 01:17:21;;;;;;;1.48;1.02;;;;;;;5.98;100.00;96041.16;5071089;28;20049;-71
2023/03/20 01:19:48;;;;;;;1.17;0.80;;;;;;;6.05;100.00;96050.31;5071431;28;20044;-74
2023/03/20 01:22:16;;;;;;;0.93;0.82;;;;;;;6.08;100.00;96052.72;5069541;28;20048;-74
2023/03/20 01:24:43;;;;;;;0.77;0.60;;;;;;;6.05;100.00;96048.56;5078894;28;20063;-73
2023/03/20 01:27:13;;;;;;;1.38;1.00;;;;;;;6.11;100.00;96044.91;5082163;28;20052;-73
2023/03/20 01:29:39;;;;;;;0.98;0.85;;;;;;;6.09;100.00;96046.72;5067271;28;20053;-73
2023/03/20 01:32:11;;;;;;;0.70;0.63;;;;;;;6.09;100.00;96046.72;5071715;28;20072;-74
2023/03/20 01:34:38;;;;;;;1.02;0.90;;;;;;;6.19;100.00;96040.31;5071172;28;20592;-74
2023/03/20 01:37:12;;;;;;;0.73;0.73;;;;;;;6.13;100.00;96044.84;5070828;28;20412;-73
2023/03/20 01:39:40;;;;;;;0.95;0.50;;;;;;;6.18;100.00;96050.63;5071071;28;20053;-72
2023/03/20 01:42:07;;;;;;;1.40;0.43;;;;;;;6.21;100.00;96053.91;5069581;28;20051;-73
2023/03/20 01:44:35;;;;;;;1.13;0.50;;;;;;;6.27;100.00;96051.09;5071114;28;20048;-73
2023/03/20 01:47:05;;;;;;;0.98;0.60;;;;;;;6.39;100.00;96044.59;5063253;28;20048;-73
2023/03/20 01:50:10;;;;;;;0.40;0.40;;;;;;;6.36;100.00;96043.91;5070781;28;20051;-72
2023/03/20 01:52:36;;;;;;;0.70;0.60;;;;;;;6.33;100.00;96042.28;5067759;28;20083;-72
2023/03/20 01:55:05;;;;;;;0.82;0.55;;;;;;;6.32;100.00;96047.50;5071166;28;20044;-73
2023/03/20 01:57:31;;;;;;;2.72;1.55;;;;;;;6.21;100.00;96053.91;5070663;28;20056;-72
2023/03/20 02:00:02;;;;;;;3.95;2.13;;;;;;;6.23;100.00;96053.84;5074858;28;20044;-72
2023/03/20 02:02:31;;;;;;;3.35;2.22;;;;;;;6.34;100.00;96056.84;5069516;28;20055;-73
2023/03/20 02:05:01;;;;;;;2.05;1.65;;;;;;;6.25;100.00;96047.75;5070889;28;20044;-73
2023/03/20 02:07:28;;;;;;;4.60;2.00;;;;;;;6.21;100.00;96066.78;5070723;28;20052;-73
2023/03/20 02:09:55;;;;;;;1.73;1.20;;;;;;;6.18;100.00;96071.22;5069739;28;20052;-73
2023/03/20 02:12:23;;;;;;;0.60;0.43;;;;;;;6.35;100.00;96073.94;5065297;28;20135;-72
2023/03/20 02:14:51;;;;;;;1.40;0.75;;;;;;;6.29;100.00;96077.59;5069366;28;20048;-72
2023/03/20 02:17:19;;;;;;;0.55;0.40;;;;;;;6.19;100.00;96075.44;5070326;28;20135;-73
2023/03/20 02:19:56;;;;;;;0.47;0.47;;;;;;;6.23;100.00;96074.41;5069747;28;20051;-73
2023/03/20 02:22:44;;;;;;;0.68;0.50;;;;;;;6.23;100.00;96067.56;5071054;28;20134;-72
2023/03/20 02:25:33;;;;;;;1.13;0.55;;;;;;;6.21;100.00;96066.78;5070645;28;20067;-72
2023/03/20 02:28:21;;;;;;;0.50;0.45;;;;;;;6.11;100.00;96068.03;5071012;28;20059;-72
2023/03/20 02:31:00;;;;;;;1.13;0.60;;;;;;;6.05;100.00;96065.75;5072332;28;20044;-72
2023/03/20 02:33:55;;;;;;;0.60;0.52;;;;;;;6.04;100.00;96064.03;5070928;28;20174;-72
2023/03/20 02:36:56;;;;;;;0.45;0.40;;;;;;;6.05;100.00;96070.88;5067077;28;20135;-72
2023/03/20 02:39:50;;;;;;;0.65;0.43;;;;;;;6.08;100.00;96070.72;5065496;28;20060;-73
2023/03/20 02:42:24;;;;;;;2.35;0.60;;;;;;;6.05;100.00;96070.88;5056951;28;20056;-72
2023/03/20 02:45:03;;;;;;;1.00;0.60;;;;;;;5.94;100.00;96068.72;5071573;28;20044;-72
2023/03/20 02:47:37;;;;;;;0.80;0.60;;;;;;;5.99;100.00;96073.69;5066757;28;20405;-72
2023/03/20 02:50:14;;;;;;;0.88;0.50;;;;;;;5.92;100.00;96069.66;5073264;28;20457;-72
2023/03/20 02:52:46;;;;;;;0.40;0.30;;;;;;;5.86;100.00;96067.31;5074435;28;20059;-72
2023/03/20 02:55:20;;;;;;;0.43;0.38;;;;;;;5.81;100.00;96072.63;5070473;28;20041;-73
2023/03/20 02:57:55;;;;;;;0.77;0.57;;;;;;;5.82;100.00;96071.72;5072377;28;20058;-72
2023/03/20 03:00:28;;;;;;;0.68;0.50;;;;;;;5.85;100.00;96069.06;5066274;28;20049;-73
2023/03/20 03:03:05;;;;;;;0.35;0.35;;;;;;;5.86;100.00;96073.31;5070171;28;20183;-73
2023/03/20 03:05:37;;;;;;;0.63;0.60;;;;;;;5.91;100.00;96080.84;5066790;28;20056;-73
2023/03/20 03:08:06;;;;;;;0.53;0.53;;;;;;;5.96;100.00;96082.34;5063806;28;20049;-73
2023/03/20 03:10:37;;;;;;;1.10;0.60;;;;;;;5.93;100.00;96084.19;5066774;28;20475;-72
2023/03/20 03:13:08;;;;;;;0.90;0.40;;;;;;;5.90;100.00;96086.88;5062694;28;20518;-73
2023/03/20 03:15:38;;;;;;;1.27;0.40;;;;;;;5.98;100.00;96082.31;5065395;28;20063;-73
2023/03/20 03:18:08;;;;;;;2.70;0.70;;;;;;;5.99;100.00;96086.53;5063451;28;20049;-73
2023/03/20 03:20:38;;;;;;;0.30;0.30;;;;;;;5.95;100.00;96090.13;5069801;28;20084;-73
2023/03/20 03:23:05;;;;;;;0.75;0.43;;;;;;;5.89;100.00;96088.59;5065969;28;20479;-71
2023/03/20 03:25:37;;;;;;;0.60;0.35;;;;;;;5.88;100.00;96091.25;5073941;28;20079;-72
2023/03/20 03:28:07;;;;;;;1.63;0.75;;;;;;;5.76;100.00;96092.56;5064251;28;20044;-72
2023/03/20 03:30:38;;;;;;;0.50;0.43;;;;;;;5.73;100.00;96090.94;5079344;28;20049;-73
2023/03/20 03:33:14;;;;;;;0.40;0.35;;;;;;;5.66;100.00;96094.63;5072990;28;20130;-72
2023/03/20 03:35:41;;;;;;;1.75;0.65;;;;;;;5.85;100.00;96092.19;5073124;28;20491;-73
2023/03/20 03:38:21;;;;;;;0.50;0.30;;;;;;;5.82;100.00;96089.72;5072901;28;20083;-72
2023/03/20 03:40:56;;;;;;;0.45;0.43;;;;;;;5.84;100.00;96090.53;5074240;28;20051;-72
2023/03/20 03:43:28;;;;;;;0.40;0.40;;;;;;;5.68;100.00;96084.31;5074600;28;20052;-72
2023/03/20 03:46:00;;;;;;;1.00;0.30;;;;;;;5.69;100.00;96096.25;5075010;28;20060;-72
2023/03/20 03:48:32;;;;;;;1.40;0.73;;;;;;;5.62;100.00;96093.06;5075626;28;20060;-72
2023/03/20 03:51:02;;;;;;;1.33;0.68;;;;;;;5.64;100.00;96093.03;5077073;28;20051;-72
2023/03/20 03:53:34;;;;;;;0.38;0.38;;;;;;;5.64;100.00;96101.56;5073473;28;20052;-72
2023/03/20 03:56:06;;;;;;;0.82;0.60;;;;;;;5.52;100.00;96100.28;5072249;28;20482;-72
2023/03/20 03:58:37;;;;;;;0.70;0.70;;;;;;;5.49;100.00;96099.59;5076673;28;20064;-72
2023/03/20 04:01:07;;;;;;;0.65;0.47;;;;;;;5.40;100.00;96103.31;5071861;28;20048;-71
2023/03/20 04:03:38;;;;;;;0.82;0.52;;;;;;;5.34;100.00;96103.56;5073652;28;20083;-71
2023/03/20 04:06:06;;;;;;;0.52;0.52;;;;;;;5.18;100.00;96095.56;5070665;28;20045;-72
2023/03/20 04:08:34;;;;;;;0.60;0.50;;;;;;;5.31;100.00;96095.97;5073032;28;20060;-72
2023/03/20 04:11:02;;;;;;;0.52;0.40;;;;;;;5.19;100.00;96092.13;5070123;28;20121;-72
2023/03/20 04:13:28;;;;;;;1.70;0.73;;;;;;;5.08;100.00;96089.94;5072171;28;20048;-72
2023/03/20 04:15:55;;;;;;;1.80;0.80;;;;;;;4.98;100.00;96096.28;5067530;28;20052;-73
2023/03/20 04:18:21;;;;;;;1.15;0.60;;;;;;;5.09;100.00;96086.47;5073141;28;20073;-74
2023/03/20 04:20:48;;;;;;;0.73;0.57;;;;;;;5.20;100.00;96083.53;5067071;28;20045;-73
2023/03/20 04:23:15;;;;;;;1.17;0.98;;;;;;;5.33;100.00;96081.31;5071637;28;20052;-72
2023/03/20 04:25:42;;;;;;;1.55;0.60;;;;;;;5.33;100.00;96078.75;5072150;28;20109;-74
2023/03/20 04:28:10;;;;;;;0.55;0.52;;;;;;;5.28;100.00;96080.66;5070221;28;20494;-74
2023/03/20 04:30:37;;;;;;;0.75;0.57;;;;;;;5.32;100.00;96080.50;5072514;28;20067;-74
2023/03/20 04:33:03;;;;;;;0.63;0.63;;;;;;;5.33;100.00;96084.72;5071750;28;20491;-71
2023/03/20 04:35:30;;;;;;;0.50;0.50;;;;;;;5.29;100.00;96087.47;5067961;28;20414;-72
2023/03/20 04:37:57;;;;;;;1.67;0.70;;;;;;;5.21;100.00;96090.31;5070255;28;20045;-75
2023/03/20 04:40:23;;;;;;;0.38;0.38;;;;;;;5.19;100.00;96094.69;5072412;28;20055;-75
2023/03/20 04:42:49;;;;;;;3.03;0.85;;;;;;;5.13;100.00;96094.91;5072222;28;20044;-74
2023/03/20 04:45:17;;;;;;;3.85;2.08;;;;;;;5.16;100.00;96096.53;5067970;28;20529;-75
2023/03/20 04:47:44;;;;;;;2.97;1.70;;;;;;;5.22;100.00;96097.13;5071094;28;20059;-75
2023/03/20 04:50:12;;;;;;;4.63;1.20;;;;;;;5.18;100.00;96105.84;5072238;28;20051;-75
2023/03/20 04:52:39;;;;;;;1.20;0.82;;;;;;;5.39;100.00;96103.38;5071862;28;20056;-75
2023/03/20 04:55:06;;;;;;;0.88;0.82;;;;;;;5.50;100.00;96107.22;5072071;28;20052;-75
2023/03/20 04:57:33;;;;;;;2.45;1.05;;;;;;;5.61;100.00;96111.13;5071778;28;20052;-75
2023/03/20 04:59:59;;;;;;;1.05;0.95;;;;;;;5.71;100.00;96110.72;5072060;28;20040;-75
2023/03/20 05:02:27;;;;;;;0.47;0.47;;;;;;;5.74;100.00;96114.91;5071948;28;20044;-75
2023/03/20 05:04:54;;;;;;;0.43;0.40;;;;;;;5.76;100.00;96116.53;5068711;28;20052;-75
2023/03/20 05:07:20;;;;;;;0.70;0.70;;;;;;;5.77;100.00;96122.50;5071373;28;20048;-74
2023/03/20 05:09:47;;;;;;;1.55;0.50;;;;;;;5.83;100.00;96123.09;5072170;28;20036;-75
2023/03/20 05:12:13;;;;;;;8.70;0.93;;;;;;;5.90;100.00;96126.28;5076142;28;20495;-75
2023/03/20 05:14:40;;;;;;;0.88;0.80;;;;;;;5.98;100.00;96119.13;5065913;28;20076;-75
2023/03/20 05:17:06;;;;;;;1.00;0.90;;;;;;;6.02;100.00;96115.53;5072437;28;20044;-75
2023/03/20 05:19:34;;;;;;;0.70;0.57;;;;;;;5.95;100.00;96111.53;5072176;28;20059;-73
2023/03/20 05:22:01;;;;;;;1.42;0.93;;;;;;;6.01;100.00;96110.47;5065786;28;20393;-72
2023/03/20 05:24:27;;;;;;;1.75;0.90;;;;;;;6.06;100.00;96111.94;5072160;28;20048;-73
2023/03/20 05:26:54;;;;;;;0.90;0.90;;;;;;;6.11;100.00;96111.75;5070645;28;20067;-74
2023/03/20 05:29:21;;;;;;;0.63;0.63;;;;;;;6.06;100.00;96108.53;5070993;28;20216;-74
2023/03/20 05:31:47;;;;;;;0.63;0.63;;;;;;;5.89;100.00;96110.91;5070735;28;20392;-77
2023/03/20 05:34:14;;;;;;;1.58;0.90;;;;;;;5.91;100.00;96107.38;5069888;28;20048;-73
2023/03/20 05:36:42;;;;;;;0.45;0.45;;;;;;;5.98;100.00;96110.59;5069416;28;20057;-73
2023/03/20 05:39:08;;;;;;;1.92;1.80;;;;;;;5.90;100.00;96120.31;5070911;28;20499;-73
2023/03/20 05:41:34;;;;;;;1.42;1.15;;;;;;;5.82;100.00;96128.28;5070193;28;20056;-73
2023/03/20 05:44:01;;;;;;;1.70;1.10;;;;;;;5.74;100.00;96128.56;5063185;28;20052;-73
2023/03/20 05:46:27;;;;;;;0.90;0.77;;;;;;;5.77;100.00;96132.78;5068166;28;20048;-73
2023/03/20 05:48:54;;;;;;;1.25;0.90;;;;;;;5.82;100.00;96128.28;5070712;28;20457;-73
2023/03/20 05:51:21;;;;;;;1.73;0.90;;;;;;;5.80;100.00;96135.22;5070975;28;20056;-73
2023/03/20 05:53:49;;;;;;;0.98;0.88;;;;;;;5.83;100.00;96137.69;5070667;28;20044;-73
2023/03/20 05:56:15;;;;;;;1.38;1.10;;;;;;;5.87;100.00;96131.53;5067977;28;20077;-73
2023/03/20 05:58:42;;;;;;;1.20;1.10;;;;;;;5.92;100.00;96136.50;5070716;28;20068;-73
2023/03/20 06:01:08;;;;;;;4.60;1.30;;;;;;;5.83;100.00;96135.94;5070577;28;20052;-73
2023/03/20 06:03:35;;;;;;;1.95;1.08;;;;;;;5.80;100.00;96142.94;5069731;28;20051;-74
2023/03/20 06:06:02;;;;;;;1.02;0.93;;;;;;;5.80;100.00;96143.78;5065264;28;20572;-75
2023/03/20 06:08:29;;;;;;;1.95;1.15;;;;;;;5.81;100.00;96140.31;5070634;28;20483;-74
2023/03/20 06:10:57;;;;;;;1.30;1.10;;;;;;;5.91;100.00;96139.97;5070355;28;20462;-74
2023/03/20 06:13:23;;;;;;;1.38;0.90;;;;;;;5.91;100.00;96142.53;5070564;28;20053;-73
2023/03/20 06:15:50;;;;;;;2.92;0.88;;;;;;;5.96;100.00;96149.19;5069858;28;20462;-73
2023/03/20 06:18:16;;;;;;;1.67;1.13;;;;;;;5.99;100.00;96143.94;5069993;28;20056;-73
2023/03/20 06:20:42;;;;;;;1.58;0.90;;;;;;;6.04;100.00;96159.19;5069585;28;20052;-76
2023/03/20 06:23:09;;;;;;;2.38;0.82;;;;;;;6.04;100.00;96154.03;5064464;28;24458;-77
2023/03/20 06:25:35;;;;;;;1.02;0.65;;;;;;;6.04;100.00;96144.63;5074304;28;20487;-75
2023/03/20 06:28:04;;;;;;;0.52;0.52;;;;;;;6.09;100.00;96151.31;5068989;28;20040;-76
2023/03/20 06:30:30;;;;;;;0.88;0.68;;;;;;;6.04;100.00;96138.59;5068792;28;20053;-74
2023/03/20 06:32:57;;;;;;;1.00;0.95;;;;;;;6.15;100.00;96136.44;5069005;28;20166;-75
2023/03/20 06:35:23;;;;;;;1.27;0.63;;;;;;;6.19;100.00;96134.59;5070572;28;20056;-76
2023/03/20 06:37:50;;;;;;;1.75;1.05;;;;;;;6.27;100.00;96138.56;5064783;28;20075;-75
2023/03/20 06:40:17;;;;;;;1.38;0.90;;;;;;;6.38;100.00;96140.72;5072018;28;20052;-75
2023/03/20 06:42:43;;;;;;;1.67;0.80;;;;;;;6.42;100.00;96147.41;5068859;28;20060;-76
2023/03/20 06:45:12;;;;;;;1.30;1.05;;;;;;;6.64;100.00;96136.25;5070325;28;20051;-75
2023/03/20 06:47:38;;;;;;;1.25;0.98;;;;;;;6.74;100.00;96142.66;5067099;28;20053;-75
2023/03/20 06:50:05;;;;;;;1.63;1.20;;;;;;;6.71;100.00;96151.34;5068050;28;20045;-75
2023/03/20 06:52:32;;;;;;;1.42;1.30;;;;;;;6.79;100.00;96149.28;5070385;28;20049;-71
2023/03/20 06:54:59;;;;;;;1.38;1.10;;;;;;;6.94;100.00;96147.81;5070101;28;20192;-74
2023/03/20 06:57:25;;;;;;;5.05;1.30;;;;;;;6.90;100.00;96151.44;5071901;28;20071;-74
2023/03/20 06:59:52;;;;;;;2.33;1.13;;;;;;;7.06;100.00;96153.34;5066134;28;20045;-75
2023/03/20 07:02:20;;;;;;;3.63;1.50;;;;;;;7.08;100.00;96160.09;5074247;28;20044;-76
2023/03/20 07:04:47;;;;;;;2.20;1.27;;;;;;;7.05;100.00;96162.81;5074620;28;20080;-77
2023/03/20 07:07:13;;;;;;;1.30;1.10;;;;;;;7.04;100.00;96174.00;5073963;28;20052;-75
2023/03/20 07:09:40;;;;;;;1.83;1.40;;;;;;;6.95;100.00;96190.69;5074141;28;20059;-76
2023/03/20 07:12:13;;;;;;;1.77;0.93;;;;;;;6.90;100.00;96186.63;5074244;28;20043;-76
2023/03/20 07:14:40;;;;;;;1.60;1.10;;;;;;;6.97;100.00;96185.44;5073626;28;20121;-74
2023/03/20 07:17:07;;;;;;;1.63;1.00;;;;;;;6.92;100.00;96175.34;5073316;28;20126;-77
2023/03/20 07:19:36;;;;;;;1.20;1.10;;;;;;;7.06;100.00;96174.78;5071598;28;20118;-76
2023/03/20 07:22:06;;;;;;;1.88;1.38;;;;;;;7.15;100.00;96176.94;5073484;28;20487;-75
2023/03/20 07:24:33;;;;;;;2.15;0.98;;;;;;;7.24;100.00;96174.00;5067992;28;20406;-76
2023/03/20 07:27:00;;;;;;;1.63;0.90;;;;;;;7.33;100.00;96175.31;5080469;28;20048;-75
2023/03/20 07:29:26;;;;;;;1.30;1.20;;;;;;;7.34;100.00;96177.03;5074122;28;20056;-75
2023/03/20 07:31:53;;;;;;;1.27;0.93;;;;;;;7.35;100.00;96176.09;5076220;28;20529;-75
2023/03/20 07:34:19;;;;;;;7.60;1.77;;;;;;;7.35;100.00;96186.41;5075816;28;20048;-75
2023/03/20 07:36:47;;;;;;;1.85;1.50;;;;;;;7.43;100.00;96178.34;5073749;28;20056;-75
2023/03/20 07:39:14;;;;;;;2.97;1.40;;;;;;;7.52;100.00;96173.59;5073770;28;20056;-75
2023/03/20 07:41:40;;;;;;;1.30;1.20;;;;;;;7.68;100.00;96176.38;5073883;28;20049;-75
2023/03/20 07:44:09;;;;;;;1.25;1.15;;;;;;;7.80;100.00;96176.72;5073600;28;20127;-75
2023/03/20 07:46:35;;;;;;;2.60;1.33;;;;;;;7.79;100.00;96177.59;5072602;28;20135;-76
2023/03/20 07:49:02;;;;;;;2.15;1.50;;;;;;;7.90;100.00;96183.97;5073603;28;20048;-73
2023/03/20 07:51:28;;;;;;;10.02;1.60;;;;;;;8.06;100.00;96185.84;5073582;28;20052;-75
2023/03/20 07:53:56;;;;;;;1.45;1.35;;;;;;;8.08;100.00;96176.28;5073215;28;20052;-74
2023/03/20 07:56:23;;;;;;;1.67;1.35;;;;;;;8.25;100.00;96184.06;5065551;28;20052;-74
2023/03/20 07:58:49;;;;;;;1.83;1.23;;;;;;;8.36;100.00;96181.81;5065816;28;20048;-75
2023/03/20 08:01:15;;;;;;;1.80;1.35;;;;;;;8.30;100.00;96182.09;5072616;28;20057;-75
2023/03/20 08:03:42;;;;;;;1.08;1.00;;;;;;;8.40;100.00;96185.97;5073139;28;20060;-74
2023/03/20 08:06:09;;;;;;;1.55;1.45;;;;;;;8.45;100.00;96177.97;5076207;28;20054;-76
2023/03/20 08:08:36;;;;;;;2.97;1.80;;;;;;;8.36;100.00;96186.97;5072034;28;20044;-76
2023/03/20 08:11:04;;;;;;;1.60;1.48;;;;;;;8.42;100.00;96180.75;5072574;28;20044;-76
2023/03/20 08:13:31;;;;;;;2.38;2.00;;;;;;;8.37;100.00;96185.22;5067865;28;20049;-76
2023/03/20 08:15:57;;;;;;;2.20;2.00;;;;;;;8.44;100.00;96184.06;5070471;28;20052;-76
2023/03/20 08:18:24;;;;;;;3.05;2.00;;;;;;;8.51;100.00;96177.69;5071398;28;20060;-77
2023/03/20 08:20:51;;;;;;;3.65;2.65;;;;;;;8.56;100.00;96180.06;5073445;28;20051;-81
2023/03/20 08:23:17;;;;;;;2.97;2.65;;;;;;;8.64;100.00;96185.69;5072498;28;20487;-74
2023/03/20 08:25:47;;;;;;;3.58;3.05;;;;;;;8.84;100.00;96180.38;5070611;28;20044;-74
2023/03/20 08:28:16;;;;;;;5.57;4.35;;;;;;;8.83;100.00;96178.72;5072083;28;21746;-77
2023/03/20 08:30:42;;;;;;;5.07;4.15;;;;;;;8.99;100.00;96186.53;5072763;28;20048;-77
2023/03/20 08:33:09;;;;;;;4.57;3.80;;;;;;;9.12;100.00;96177.28;5073261;28;20048;-77
2023/03/20 08:35:36;;;;;;;4.10;3.53;;;;;;;9.36;100.00;96180.34;5075062;28;20055;-78
2023/03/20 08:38:02;;;;;;;5.50;3.75;;;;;;;9.37;100.00;96176.84;5070068;28;20076;-77
2023/03/20 08:40:29;;;;;;;12.73;4.38;;;;;;;9.59;100.00;96168.81;5072813;28;20075;-77
2023/03/20 08:42:56;;;;;;;5.80;4.07;;;;;;;9.45;100.00;96172.13;5072493;28;20056;-77
2023/03/20 08:45:25;;;;;;;4.80;3.10;;;;;;;9.38;100.00;96180.25;5072803;28;20055;-75
2023/03/20 08:47:52;;;;;;;4.80;3.25;;;;;;;9.66;100.00;96170.16;5071891;28;20084;-75
2023/03/20 08:50:18;;;;;;;5.45;4.25;;;;;;;9.66;100.00;96175.31;5067750;28;20049;-75
2023/03/20 08:52:45;;;;;;;4.25;3.45;;;;;;;9.87;100.00;96180.28;5071902;28;20494;-75
2023/03/20 08:55:13;;;;;;;4.22;3.63;;;;;;;9.98;100.00;96185.72;5072717;28;20044;-76
2023/03/20 08:57:40;;;;;;;6.95;4.15;;;;;;;10.21;100.00;96194.00;5074715;28;20052;-75
2023/03/20 09:00:10;;;;;;;5.57;3.58;;;;;;;10.31;100.00;96182.25;5073339;28;20048;-75
2023/03/20 09:02:38;;;;;;;4.22;3.40;;;;;;;10.32;100.00;96192.53;5069099;28;20076;-76
2023/03/20 09:05:06;;;;;;;3.85;3.10;;;;;;;10.44;100.00;96182.41;5072049;28;20693;-75
2023/03/20 09:07:32;;;;;;;3.03;2.72;;;;;;;10.30;100.00;96178.81;5071984;28;20084;-75
2023/03/20 09:09:59;;;;;;;3.22;2.92;;;;;;;10.05;100.00;96184.47;5071971;28;20036;-75
2023/03/20 09:12:26;;;;;;;3.95;2.20;;;;;;;10.13;100.00;96184.91;5072322;28;20450;-75
2023/03/20 09:14:52;;;;;;;2.55;2.25;;;;;;;10.22;100.00;96188.72;5070512;28;20052;-75
2023/03/20 09:17:19;;;;;;;2.10;1.90;;;;;;;10.33;100.00;96189.00;5072249;28;20087;-75
2023/03/20 09:19:47;;;;;;;3.15;2.03;;;;;;;10.33;100.00;96188.19;5073380;28;20131;-77
2023/03/20 09:22:16;;;;;;;3.70;2.40;;;;;;;10.47;100.00;96188.25;5071163;28;20053;-75
2023/03/20 09:24:43;;;;;;;2.85;2.17;;;;;;;10.45;100.00;96187.50;5077708;28;20048;-75
2023/03/20 09:27:12;;;;;;;;;;;;;;;10.43;100.00;96186.75;5072542;28;20040;-75
2023/03/20 09:29:38;;;;;;;;;;;;;;;10.64;100.00;96197.66;5068838;28;20355;-76
2023/03/20 09:32:05;;;;;;;;;;;;;;;10.94;100.00;96189.06;5071786;28;19936;-75
2023/03/20 09:34:31;;;;;;;;;;;;;;;11.37;100.00;96190.81;5071070;28;20405;-76
2023/03/20 09:37:01;;;;;;;2.20;1.80;;;;;;;11.75;100.00;96182.50;5070183;28;19934;-71
2023/03/20 09:39:28;;;;;;;;;;;;;;;11.61;100.00;96183.34;5071370;28;20044;-72
2023/03/20 09:41:59;;;;;;;;;;;;;;;11.28;100.00;96187.97;5071602;28;20393;-73
2023/03/20 09:44:34;;;;;;;;;;;;;;;11.05;100.00;96192.72;5069900;28;19944;-72
2023/03/20 09:47:07;;;;;;;;;;;;;;;11.05;100.00;96189.28;5068778;28;20072;-73
2023/03/20 09:49:39;;;;;;;;;;;;;;;10.90;100.00;96202.22;5066957;28;20405;-73
2023/03/20 09:52:13;;;;;;;;;;;;;;;10.57;100.00;96202.38;5069555;28;19921;-72
2023/03/20 09:54:41;;;;;;;;;;;;;;;10.40;100.00;96205.03;5071075;28;19928;-75
2023/03/20 09:57:16;;;;;;;;;;;;;;;10.34;100.00;96205.38;5071774;28;19920;-76
2023/03/20 09:59:45;;;;;;;;;;;;;;;10.27;100.00;96207.47;5066810;28;21294;-76
2023/03/20 10:02:14;;;;;;;;;;;;;;;10.28;100.00;96196.19;5068370;28;19932;-75
2023/03/20 10:04:42;;;;;;;;;;;;;;;10.24;100.00;96201.59;5069712;28;19939;-76
2023/03/20 10:07:15;;;;;;;;;;;;;;;10.39;100.00;96205.97;5071305;28;19933;-76
2023/03/20 10:09:44;;;;;;;;;;;;;;;10.55;100.00;96209.38;5071466;28;19928;-75
2023/03/20 10:12:20;;;;;;;;;;;;;;;10.57;100.00;96206.72;5070048;28;20393;-75
2023/03/20 10:14:52;;;;;;;;;;;;;;;10.57;100.00;96204.13;5075999;28;19932;-74
2023/03/20 10:17:27;;;;;;;;;;;;;;;10.68;100.00;96209.53;5069775;28;20318;-74
2023/03/20 10:19:57;;;;;;;;;;;;;;;10.66;100.00;96211.38;5066169;28;19929;-75
2023/03/20 10:22:28;;;;;;;;;;;;;;;10.66;100.00;96204.44;5071952;28;19928;-76
2023/03/20 10:24:56;;;;;;;;;;;;;;;10.68;100.00;96208.69;5071477;28;20384;-75
2023/03/20 10:27:23;;;;;;;;;;;;;;;10.88;100.00;96211.00;5067532;28;19970;-76
2023/03/20 10:29:54;;;;;;;;;;;;;;;11.20;100.00;96208.28;5070973;28;19964;-76
2023/03/20 10:32:25;;;;;;;;;;;;;;;11.21;100.00;96207.38;5072117;28;20428;-75
2023/03/20 10:34:59;;;;;;;;;;;;;;;11.04;100.00;96206.59;5071440;28;19925;-75
2023/03/20 10:37:34;;;;;;;;;;;;;;;11.08;100.00;96209.84;5071286;28;19924;-75
2023/03/20 10:40:08;;;;;;;;;;;;;;;11.02;100.00;96212.81;5067033;28;19924;-76
2023/03/20 10:42:36;;;;;;;;;;;;;;;10.81;100.00;96205.31;5076353;28;20029;-76
2023/03/20 10:45:06;;;;;;;;;;;;;;;10.81;100.00;96196.72;5071478;28;19925;-74
2023/03/20 10:47:35;;;;;;;;;;;;;;;10.77;100.00;96197.81;5073524;28;19928;-76
2023/03/20 10:50:02;;;;;;;;;;;;;;;10.54;100.00;96194.75;5079793;28;19925;-76
2023/03/20 10:52:32;;;;;;;;;;;;;;;10.69;100.00;96195.66;5071433;28;19924;-75
2023/03/20 10:55:00;;;;;;;;;;;;;;;10.62;100.00;96189.16;5071461;28;19960;-75
2023/03/20 10:57:30;;;;;;;;;;;;;;;10.69;100.00;96194.81;5071274;28;19951;-75
2023/03/20 10:59:57;;;;;;;;;;;;;;;10.74;100.00;96192.78;5071361;28;19924;-75
2023/03/20 11:02:27;;;;;;;;;;;;;;;10.81;100.00;96188.94;5074661;28;19928;-75
2023/03/20 11:04:53;;;;;;;;;;;;;;;10.65;100.00;96195.00;5070200;28;19940;-75
2023/03/20 11:07:23;;;;;;;;;;;;;;;10.83;100.00;96194.88;5071287;28;19925;-75
2023/03/20 11:10:06;;;;;;;;;;;;;;;10.67;100.00;96200.06;5073849;28;19931;-75
2023/03/20 11:12:33;;;;;;;;;;;;;;;10.63;100.00;96196.00;5064181;28;20461;-75
2023/03/20 11:15:00;;;;;;;;;;;;;;;10.71;100.00;96200.75;5071281;28;19925;-75
2023/03/20 11:17:28;;;;;;;;;;;;;;;10.86;99.27;96202.47;5071234;28;19932;-75
2023/03/20 11:20:02;;;;;;;;;;;;;;;10.93;98.69;96198.59;5071046;28;19924;-75
2023/03/20 11:22:28;;;;;;;;;;;;;;;10.67;97.27;96202.66;5071242;28;19932;-75
2023/03/20 11:24:57;;;;;;;;;;;;;;;10.75;99.67;96199.63;5070940;28;19932;-76
2023/03/20 11:27:25;;;;;;;;;;;;;;;10.86;98.28;96198.13;5065197;28;19974;-76
2023/03/20 11:29:51;;;;;;;;;;;;;;;10.93;98.53;96192.56;5064622;28;19925;-76
2023/03/20 11:32:22;;;;;;;;;;;;;;;10.94;96.93;96197.69;5070807;28;20358;-76
2023/03/20 11:34:50;;;;;;;;;;;;;;;11.12;97.09;96195.78;5068960;28;19925;-76
2023/03/20 11:37:21;;;;;;;;;;;;;;;11.02;96.62;96197.25;5070559;28;19979;-76
2023/03/20 11:39:53;;;;;;;;;;;;;;;11.14;96.83;96194.78;5068983;28;19929;-75
2023/03/20 11:42:24;;;;;;;;;;;;;;;11.23;97.00;96193.38;5071282;28;19924;-75
2023/03/20 11:44:56;;;;;;;;;;;;;;;11.25;96.04;96193.31;5074098;28;20340;-76
2023/03/20 11:47:24;;;;;;;;;;;;;;;11.17;97.71;96191.16;5073613;28;19931;-76
2023/03/20 11:49:54;;;;;;;;;;;;;;;11.18;99.60;96192.84;5068610;28;19928;-76
2023/03/20 11:52:22;;;;;;;;;;;;;;;11.19;96.58;96186.72;5074437;28;20015;-75
2023/03/20 11:54:50;;;;;;;;;;;;;;;11.10;98.17;96193.28;5075804;28;20318;-75